CYXL

Details ICAO CYXL (YXL)
Name SIOUX LOOKOUT
Region Canada
Timezone America/Winnipeg (UTC-6.0)
Plans Departing 11
Arriving 6
Stats Elevation 1,258 ft / 383 m (AMSL)
Location 50.115852° -91.903574°
Runways 2
Magnetic Variation 1.767° W
Sunrise 2017-12-16 14:02:30 UTC / 2017-12-16 08:02:30 Local
Sunset 2017-12-16 22:07:00 UTC / 2017-12-16 16:07:00 Local
Advertisement - Login to hide

Runways

ID Width Length Bearing (true) Bearing (mag) Surface Threshold Offset Overrun Length
03 50 ft / 15 m 2,134 ft / 651 m 31.20° 32.97° Gravel 0 ft / 0 m 0 ft / 0 m
16 100 ft / 30 m 5,298 ft / 1,615 m 156.25° 158.02° Asphalt 300 ft / 91 m 0 ft / 0 m
21 50 ft / 15 m 2,134 ft / 651 m 211.20° 212.97° Gravel 0 ft / 0 m 0 ft / 0 m
34 100 ft / 30 m 5,298 ft / 1,615 m 336.26° 338.03° Asphalt 0 ft / 0 m 0 ft / 0 m

Map

Weather


0- 5 10 15 20 25 30 35+ Temperature / ° C

Clouds and Precipitation
Forecast for 2017-12-16 18:00 UTC. Updated 2 minutes ago

Ground ~20,000 ft ~40,000 ft Winds

METAR

CYXL 161700Z 14005KT 080V170 15SM FEW130 BKN140 M21/M24 A3001 RMK AC2AC4 SLP212

TAF

TAF CYXL 161338Z 1614/1702 VRB03KT P6SM BKN220 BECMG 1614/1616 14007KT FM161900 14010KT P6SM SCT020 OVC030 TEMPO 1619/1701 5SM -SN OVC020 FM170100 15005KT P6SM OVC015 PROB30 1701/1702 2SM -FZDZ BR RMK NXT FCST BY 162000Z

Frequencies

Recorded 124.75 MHz ATIS
Approach 122.00 MHz MF
Warning: Do not use this data for real-world aviation or navigation. No guarantee of current accuracy is given.